Galveston, Kentucky
Current Conditions -  °F | °C
As of 3:55 AM on Thursday 23 Oct 2014 (Local Time) from KPBX Reporting Station
Overcast Overcast  
Wind Chill: 42°   Ceiling: 2600
Heat Index: 45°   Visibility: 10mi
Dew Point: 40°   Wind: 5mph
Humidity: 85%   Direction: 310°NW
Pressure: 30.2"   Gusts: NA
Location:  37.4843°N, 82.6492°W
Report Text: KPBX 230755Z AUTO 31004KT 10SM OVC026 07/05 A3020 RMK AO2 T00700047
Loading
Personal Weather Stations






























Interactive Weather Map
Tropical Storm Tracking
New forecast layout! Learn more

10-Day Weather Forecast

Advertisements
Track Severe Weather on mobile